Time;durP1;ratioP1;P1;durP2;ratioP2;P2;SDS_P1;SDS_P2;PMS_P1;PMS_P2;Temp;Humidity;BMP_temperature;BMP_pressure;BME280_temperature;BME280_humidity;BME280_pressure;Samples;Min_cycle;Max_cycle;Signal;HPM_P1;HPM_P2
2024/01/11 04:59:50;;;;;;;63.13;30.77;;;;;;;-6.42;100.00;67778.44;6130729;27;20196;-84
2024/01/11 05:02:53;;;;;;;61.35;31.52;;;;;;;-6.48;100.00;67768.97;5322609;33;33544;-83
2024/01/11 05:05:56;;;;;;;69.03;31.73;;;;;;;-6.51;100.00;67765.56;5309777;33;34851;-84
2024/01/11 05:08:59;;;;;;;60.42;33.00;;;;;;;-6.60;100.00;67757.84;5322518;33;34924;-84
2024/01/11 05:12:02;;;;;;;69.28;33.50;;;;;;;-6.72;100.00;67799.22;5309394;33;33955;-84
2024/01/11 05:15:08;;;;;;;70.82;31.50;;;;;;;-6.75;100.00;67741.28;5309175;33;33762;-84
2024/01/11 05:18:11;;;;;;;69.68;34.10;;;;;;;-6.70;100.00;67744.41;5321466;33;33781;-84
2024/01/11 05:21:15;;;;;;;77.90;34.33;;;;;;;-6.68;100.00;67746.69;5322585;33;33540;-84
2024/01/11 05:24:18;;;;;;;74.65;37.10;;;;;;;-6.71;100.00;67743.25;5297921;33;33898;-84
2024/01/11 05:27:21;;;;;;;68.78;35.10;;;;;;;-6.67;100.00;67747.84;5309641;33;34154;-84
2024/01/11 05:30:24;;;;;;;76.12;34.67;;;;;;;-6.65;100.00;67750.09;5311851;33;33981;-85
2024/01/11 05:33:32;;;;;;;65.93;32.83;;;;;;;-6.63;100.00;67752.41;5312836;33;34231;-88
2024/01/11 05:36:35;;;;;;;63.97;31.70;;;;;;;-6.64;100.00;67751.25;5312396;33;34360;-88
2024/01/11 05:39:38;;;;;;;67.62;34.38;;;;;;;-6.65;100.00;67749.53;5326398;33;34234;-84
2024/01/11 05:42:41;;;;;;;68.78;34.90;;;;;;;-6.63;100.00;67806.94;5312715;33;34730;-84
2024/01/11 05:45:45;;;;;;;73.00;33.22;;;;;;;-6.65;100.00;67750.09;5301395;33;33804;-84
2024/01/11 05:48:50;;;;;;;80.20;34.13;;;;;;;-6.62;100.00;67753.53;5303978;33;34379;-84
2024/01/11 05:51:53;;;;;;;77.22;34.83;;;;;;;-6.66;100.00;67806.09;5316180;33;34410;-84
2024/01/11 05:54:56;;;;;;;68.22;30.50;;;;;;;-6.68;100.00;67749.28;5315809;33;33960;-84
2024/01/11 05:57:59;;;;;;;65.18;30.08;;;;;;;-6.66;100.00;67751.00;5314668;33;33997;-84
2024/01/11 06:01:01;;;;;;;73.97;34.47;;;;;;;-6.63;100.00;67752.41;5311848;33;33549;-84
2024/01/11 06:04:05;;;;;;;70.55;33.05;;;;;;;-6.67;100.00;67804.38;5325598;33;34784;-84
2024/01/11 06:07:09;;;;;;;77.37;32.35;;;;;;;-6.70;100.00;67744.41;5325415;33;34025;-84
2024/01/11 06:10:12;;;;;;;59.45;32.72;;;;;;;-6.70;100.00;67744.41;5312840;33;34163;-84
2024/01/11 06:13:15;;;;;;;70.95;29.08;;;;;;;-6.70;100.00;67746.41;5325722;33;34029;-84
2024/01/11 06:16:18;;;;;;;88.22;32.10;;;;;;;-6.68;100.00;67749.28;5312779;33;33621;-83
2024/01/11 06:19:23;;;;;;;67.80;33.35;;;;;;;-6.70;100.00;67747.00;5313179;33;34047;-84
2024/01/11 06:22:26;;;;;;;59.67;28.33;;;;;;;-6.67;100.00;67750.44;5327205;33;34450;-84
2024/01/11 06:25:29;;;;;;;68.62;32.08;;;;;;;-6.63;100.00;67752.41;5324817;33;33363;-84
2024/01/11 06:28:33;;;;;;;73.22;31.77;;;;;;;-6.66;100.00;67751.00;5299557;33;33981;-84
2024/01/11 06:31:38;;;;;;;66.18;32.67;;;;;;;-6.63;100.00;67755.00;5314941;33;33971;-84
2024/01/11 06:34:45;;;;;;;63.95;31.17;;;;;;;-6.65;100.00;67807.25;5323694;33;33981;-84
2024/01/11 06:37:49;;;;;;;72.50;32.67;;;;;;;-6.65;100.00;67755.28;5310823;33;34089;-84
2024/01/11 06:40:52;;;;;;;74.75;37.60;;;;;;;-6.71;100.00;67745.84;5309662;33;35363;-83
2024/01/11 06:43:54;;;;;;;81.47;33.95;;;;;;;-6.66;100.00;67748.41;5324259;33;33704;-85
2024/01/11 06:47:03;;;;;;;73.22;30.83;;;;;;;-6.60;100.00;67754.69;5312067;33;34014;-83
2024/01/11 06:50:08;;;;;;;62.55;30.80;;;;;;;-6.49;100.00;67767.25;5300013;33;33772;-84
2024/01/11 06:53:11;;;;;;;67.93;29.98;;;;;;;-6.50;100.00;67766.13;5311484;33;34215;-84
2024/01/11 06:56:19;;;;;;;65.53;29.12;;;;;;;-6.44;100.00;67830.13;5311315;33;34143;-84
2024/01/11 06:59:23;;;;;;;71.35;33.08;;;;;;;-6.26;100.00;67793.00;5311466;33;34831;-84
2024/01/11 07:02:28;;;;;;;71.78;30.45;;;;;;;-6.24;100.00;67798.47;5313458;33;33828;-84
2024/01/11 07:05:31;;;;;;;62.30;31.30;;;;;;;-6.14;100.00;67808.75;5318432;33;35126;-84
2024/01/11 07:08:35;;;;;;;65.25;30.10;;;;;;;-6.03;100.00;67821.34;5314749;33;33831;-84
2024/01/11 07:11:38;;;;;;;58.60;32.42;;;;;;;-5.84;100.00;67897.13;5299549;33;35436;-84
2024/01/11 07:14:42;;;;;;;58.90;26.77;;;;;;;-5.72;100.00;67853.66;5312973;33;33923;-84
2024/01/11 07:17:45;;;;;;;38.05;18.30;;;;;;;-5.43;100.00;67888.88;5324106;33;33948;-84
2024/01/11 07:20:48;;;;;;;26.52;14.60;;;;;;;-5.14;100.00;67976.22;5323842;33;34109;-84
2024/01/11 07:23:52;;;;;;;28.05;13.35;;;;;;;-4.77;100.00;68017.47;5323826;33;34076;-85
2024/01/11 07:26:55;;;;;;;26.25;14.13;;;;;;;-4.27;100.00;68015.75;5308731;33;33990;-84
2024/01/11 07:29:58;;;;;;;27.92;13.82;;;;;;;-3.87;100.00;68064.22;5314667;33;34753;-84
2024/01/11 07:33:01;;;;;;;23.48;12.57;;;;;;;-3.55;100.00;68096.63;5310132;33;35115;-89
2024/01/11 07:36:06;;;;;;;32.00;14.57;;;;;;;-3.31;100.00;68181.03;5321635;33;35218;-89
2024/01/11 07:39:09;;;;;;;27.73;12.77;;;;;;;-3.15;100.00;68199.41;5322567;33;34037;-89
2024/01/11 07:42:14;;;;;;;32.55;14.55;;;;;;;-2.85;100.00;68175.25;5313201;33;35476;-85
2024/01/11 07:45:17;;;;;;;29.50;13.35;;;;;;;-2.67;100.00;68198.50;5325897;33;33840;-85
2024/01/11 07:48:21;;;;;;;32.70;14.35;;;;;;;-2.47;100.00;68220.34;5325479;33;33694;-84
2024/01/11 07:51:25;;;;;;;31.08;14.10;;;;;;;-2.29;100.00;68241.00;5300266;33;34092;-86
2024/01/11 07:54:28;;;;;;;32.72;14.45;;;;;;;-1.85;100.00;68290.41;5312038;33;33990;-83
2024/01/11 07:57:30;;;;;;;28.77;13.62;;;;;;;-1.63;100.00;68315.16;5314539;33;34038;-82
2024/01/11 08:00:33;;;;;;;26.87;12.70;;;;;;;-1.55;100.00;68324.34;5311858;33;33818;-82
2024/01/11 08:03:36;;;;;;;27.55;12.85;;;;;;;-1.55;100.00;68326.97;5323684;33;33495;-85
2024/01/11 08:06:39;;;;;;;24.35;12.88;;;;;;;-1.55;100.00;68323.75;5310480;33;35352;-83
2024/01/11 08:09:45;;;;;;;25.08;12.77;;;;;;;-1.51;100.00;68331.56;5324816;33;34692;-83
2024/01/11 08:12:48;;;;;;;23.55;10.95;;;;;;;-1.45;100.00;68390.28;5324408;33;34205;-82
2024/01/11 08:15:51;;;;;;;26.58;11.60;;;;;;;-1.34;100.00;68347.91;5311294;33;33825;-82
2024/01/11 08:18:54;;;;;;;21.50;11.40;;;;;;;-1.20;100.00;68361.38;5323193;33;33793;-81
2024/01/11 08:21:57;;;;;;;23.42;9.95;;;;;;;-0.97;100.00;68389.31;5301853;33;34245;-82
2024/01/11 08:25:00;;;;;;;25.15;11.18;;;;;;;-1.03;100.00;68379.78;5323850;33;34399;-84
2024/01/11 08:28:03;;;;;;;17.42;10.13;;;;;;;-0.92;100.00;68393.00;5325873;33;34405;-82
2024/01/11 08:31:06;;;;;;;32.53;10.40;;;;;;;-0.86;100.00;68401.97;5322667;33;34050;-82
2024/01/11 08:34:10;;;;;;;19.30;9.65;;;;;;;-0.85;100.00;68460.22;5309154;33;33785;-82
2024/01/11 08:37:14;;;;;;;20.67;10.38;;;;;;;-0.81;100.00;68409.75;5298901;33;33781;-83
2024/01/11 08:40:17;;;;;;;21.40;9.32;;;;;;;-0.73;100.00;68413.72;5310003;33;35292;-83
2024/01/11 08:43:20;;;;;;;18.70;8.88;;;;;;;-0.54;100.00;68437.63;5323601;33;34538;-83
2024/01/11 08:46:24;;;;;;;17.23;8.98;;;;;;;-0.43;100.00;68450.28;5310924;33;33564;-82
2024/01/11 08:49:27;;;;;;;16.12;8.70;;;;;;;-0.28;97.83;68467.53;5322932;33;33794;-82
2024/01/11 08:52:30;;;;;;;21.30;9.18;;;;;;;-0.19;97.66;68479.38;5324199;33;35298;-82
2024/01/11 08:55:33;;;;;;;15.77;8.13;;;;;;;-0.06;95.54;68492.31;5323248;33;35052;-83
2024/01/11 08:58:36;;;;;;;22.52;8.05;;;;;;;0.10;94.33;68506.94;5311378;33;33959;-85
2024/01/11 09:01:40;;;;;;;15.23;7.28;;;;;;;0.15;88.75;68518.53;5312124;33;34622;-83
2024/01/11 09:04:51;;;;;;;18.02;7.62;;;;;;;0.26;86.81;68524.78;5312767;33;34751;-82
2024/01/11 09:07:54;;;;;;;17.20;7.22;;;;;;;0.23;84.42;68521.91;5300001;33;34118;-83
2024/01/11 09:11:00;;;;;;;16.80;7.60;;;;;;;0.25;82.82;68526.84;5310916;33;33853;-83
2024/01/11 09:14:03;;;;;;;16.15;7.25;;;;;;;0.09;83.28;68509.00;5311602;33;34889;-84
2024/01/11 09:17:06;;;;;;;11.65;6.72;;;;;;;0.08;82.04;68507.84;5324859;33;35114;-83
2024/01/11 09:20:13;;;;;;;16.17;7.57;;;;;;;0.19;81.35;68517.88;5324845;33;35040;-83
2024/01/11 09:23:20;;;;;;;12.98;6.20;;;;;;;0.38;80.80;68541.22;5313032;33;34321;-83
2024/01/11 09:26:23;;;;;;;13.77;7.12;;;;;;;0.39;79.18;68542.38;5325118;33;34209;-83
2024/01/11 09:29:27;;;;;;;13.43;7.00;;;;;;;0.47;78.11;68559.50;5313017;33;33979;-83
2024/01/11 09:32:31;;;;;;;14.85;7.53;;;;;;;0.32;76.69;68534.91;5325423;33;34299;-83
2024/01/11 09:35:34;;;;;;;14.68;6.70;;;;;;;0.50;75.22;68554.47;5318113;33;34375;-88
2024/01/11 09:38:37;;;;;;;12.70;6.35;;;;;;;0.53;74.06;68561.16;5326622;33;34502;-86
2024/01/11 09:41:47;;;;;;;10.57;6.05;;;;;;;0.66;74.18;68573.47;5314360;33;34074;-87
2024/01/11 09:44:50;;;;;;;10.68;6.07;;;;;;;0.56;71.83;68561.97;5325602;33;34720;-83
2024/01/11 09:47:54;;;;;;;8.07;5.03;;;;;;;0.54;70.57;68559.66;5336391;33;33485;-83
2024/01/11 09:50:59;;;;;;;8.02;4.37;;;;;;;0.63;68.53;68572.66;5313036;33;33877;-83
2024/01/11 09:54:03;;;;;;;12.63;4.93;;;;;;;0.75;61.25;68585.34;5314158;33;34048;-83
2024/01/11 09:57:07;;;;;;;10.90;4.82;;;;;;;0.78;59.05;68591.41;5325818;33;34257;-83
2024/01/11 10:00:13;;;;;;;13.73;5.93;;;;;;;0.87;58.74;68601.78;5317937;33;33960;-83
2024/01/11 10:03:17;;;;;;;11.00;5.57;;;;;;;1.00;58.92;68669.38;5324869;33;34417;-83
2024/01/11 10:06:22;;;;;;;10.40;5.55;;;;;;;1.04;59.99;68673.97;5328383;33;35289;-83
2024/01/11 10:09:26;;;;;;;11.75;5.50;;;;;;;1.00;59.87;68608.31;5300945;33;34164;-83
2024/01/11 10:12:29;;;;;;;9.25;5.25;;;;;;;0.97;60.37;68610.13;5324999;33;34520;-83
2024/01/11 10:15:32;;;;;;;12.00;6.60;;;;;;;1.11;59.74;68626.22;5329053;33;34030;-83
2024/01/11 10:18:36;;;;;;;14.32;5.95;;;;;;;1.09;59.71;68621.31;5303955;33;34316;-83
2024/01/11 10:21:39;;;;;;;9.93;5.47;;;;;;;1.29;60.06;68644.38;5313270;33;33827;-83
2024/01/11 10:24:43;;;;;;;15.25;6.05;;;;;;;1.28;60.09;68640.00;5311627;33;34865;-83
2024/01/11 10:27:46;;;;;;;12.75;6.82;;;;;;;1.27;61.35;68699.38;5301112;33;34243;-83
2024/01/11 10:30:53;;;;;;;10.90;5.45;;;;;;;1.41;62.73;68657.63;5317049;33;35329;-84
2024/01/11 10:33:57;;;;;;;16.35;8.43;;;;;;;1.49;61.31;68669.47;5335994;33;34218;-83
2024/01/11 10:37:00;;;;;;;11.55;6.60;;;;;;;1.44;62.35;68663.72;5328273;33;35199;-84
2024/01/11 10:40:15;;;;;;;13.82;7.65;;;;;;;1.50;62.74;68667.41;5324820;33;34440;-84
2024/01/11 10:43:22;;;;;;;12.80;7.70;;;;;;;1.52;63.37;68672.34;5334241;33;34396;-84
2024/01/11 10:46:26;;;;;;;15.98;7.57;;;;;;;1.48;63.44;68720.38;5346018;33;34435;-84
2024/01/11 10:49:30;;;;;;;16.90;8.02;;;;;;;1.58;64.70;68731.94;5343608;33;33053;-83
2024/01/11 10:52:39;;;;;;;14.68;7.93;;;;;;;1.71;64.82;68691.06;5328698;33;33818;-83
2024/01/11 10:55:43;;;;;;;15.85;8.05;;;;;;;1.67;65.95;68689.66;5344764;33;33949;-84
2024/01/11 10:58:48;;;;;;;19.85;9.20;;;;;;;1.74;63.26;68695.09;5321477;33;35743;-84
2024/01/11 11:01:57;;;;;;;20.92;8.52;;;;;;;1.65;63.21;68684.72;5324275;33;34025;-84
2024/01/11 11:05:04;;;;;;;19.77;9.20;;;;;;;1.65;65.16;68686.78;5310049;33;34042;-83
2024/01/11 11:08:09;;;;;;;16.90;8.75;;;;;;;1.66;64.46;68683.22;5328857;33;34517;-83
2024/01/11 11:11:13;;;;;;;24.48;10.50;;;;;;;1.77;63.41;68697.97;5328977;33;35297;-88
2024/01/11 11:14:18;;;;;;;19.75;8.50;;;;;;;1.88;64.30;68710.66;5316737;33;34680;-84
2024/01/11 11:17:21;;;;;;;20.42;9.82;;;;;;;1.96;63.79;68777.25;5333556;33;33942;-84
2024/01/11 11:20:24;;;;;;;24.48;11.00;;;;;;;1.91;63.42;68769.44;5302210;33;35067;-84
2024/01/11 11:23:27;;;;;;;21.48;10.25;;;;;;;1.97;66.86;68721.03;5311918;33;34890;-84
2024/01/11 11:26:32;;;;;;;22.65;10.95;;;;;;;2.04;67.21;68728.53;5311257;33;34345;-82
2024/01/11 11:29:35;;;;;;;19.80;10.27;;;;;;;2.18;66.70;68744.09;5327951;33;34058;-83
2024/01/11 11:32:43;;;;;;;22.27;10.98;;;;;;;2.19;66.76;68747.88;5312739;33;34484;-83
2024/01/11 11:35:47;;;;;;;21.20;10.65;;;;;;;2.30;66.25;68757.38;5323993;33;34056;-83
2024/01/11 11:38:50;;;;;;;17.87;9.50;;;;;;;2.42;65.69;68768.59;5325725;33;34288;-84
2024/01/11 11:41:57;;;;;;;17.85;9.50;;;;;;;2.66;65.89;68856.34;5329765;33;35241;-83
2024/01/11 11:45:00;;;;;;;18.10;9.70;;;;;;;2.82;64.10;68874.28;5309854;33;34393;-83
2024/01/11 11:48:28;;;;;;;25.40;11.48;;;;;;;3.04;62.81;68899.09;5310592;33;34962;-83
2024/01/11 11:51:32;;;;;;;22.73;11.68;;;;;;;3.03;62.13;68842.53;5320406;33;35064;-84
2024/01/11 11:54:36;;;;;;;19.12;9.80;;;;;;;3.17;61.36;68856.63;5310633;33;34204;-83
2024/01/11 11:57:38;;;;;;;22.23;10.55;;;;;;;3.04;61.98;68841.63;5299507;33;34235;-83
2024/01/11 12:00:42;;;;;;;23.65;12.23;;;;;;;3.63;60.76;68908.03;5310582;33;34060;-83
2024/01/11 12:03:49;;;;;;;24.92;11.80;;;;;;;4.40;59.46;68997.94;5310350;33;35014;-83
2024/01/11 12:06:52;;;;;;;26.05;11.10;;;;;;;5.00;56.82;69065.56;5312032;33;34142;-83
2024/01/11 12:09:57;;;;;;;23.62;11.45;;;;;;;5.38;53.27;69106.31;5312457;33;34687;-83
2024/01/11 12:13:00;;;;;;;21.02;11.60;;;;;;;4.72;55.36;69031.13;5323141;33;35442;-83
2024/01/11 12:16:03;;;;;;;23.50;11.63;;;;;;;4.81;54.09;69046.81;5310504;33;34180;-83
2024/01/11 12:19:06;;;;;;;27.40;12.80;;;;;;;5.40;53.32;69110.69;5324740;33;34406;-84
2024/01/11 12:22:09;;;;;;;23.23;11.15;;;;;;;6.31;49.20;69216.97;5299819;33;34423;-84
2024/01/11 12:25:14;;;;;;;24.12;11.45;;;;;;;6.93;46.56;69281.75;5312884;33;34458;-84
2024/01/11 12:28:17;;;;;;;24.67;11.23;;;;;;;7.18;46.00;69312.78;5323349;33;34115;-84
2024/01/11 12:31:21;;;;;;;22.80;11.57;;;;;;;7.00;44.81;69291.94;5326474;33;33745;-84
2024/01/11 12:34:26;;;;;;;23.12;11.82;;;;;;;7.94;42.54;69395.94;5324560;33;34805;-84
2024/01/11 12:37:30;;;;;;;20.65;10.80;;;;;;;8.42;40.89;69455.22;5328918;33;33979;-83
2024/01/11 12:40:35;;;;;;;21.12;11.52;;;;;;;8.64;40.48;69478.06;5330872;33;34139;-82
2024/01/11 12:43:38;;;;;;;25.75;12.45;;;;;;;9.28;39.13;69551.19;5333523;33;34834;-84
2024/01/11 12:46:41;;;;;;;23.00;11.88;;;;;;;9.04;38.46;69526.00;5332621;33;32794;-83
2024/01/11 12:49:48;;;;;;;23.87;11.98;;;;;;;8.99;38.95;69517.53;5314371;33;33974;-82
2024/01/11 12:53:07;;;;;;;24.27;11.40;;;;;;;10.42;36.99;69680.75;5317546;33;33749;-87
2024/01/11 12:56:11;;;;;;;24.00;11.95;;;;;;;11.37;34.46;69787.72;5322536;33;33915;-83
2024/01/11 12:59:16;;;;;;;22.27;11.30;;;;;;;9.48;36.85;69573.84;5325558;33;34042;-83
2024/01/11 13:02:19;;;;;;;20.98;10.75;;;;;;;6.93;41.39;69287.06;5303275;33;34301;-83
2024/01/11 13:05:23;;;;;;;21.40;11.38;;;;;;;5.42;44.20;69113.00;5314967;33;33617;-83
2024/01/11 13:08:27;;;;;;;21.58;11.52;;;;;;;4.84;46.39;69044.44;5317077;33;34190;-82
2024/01/11 13:11:30;;;;;;;21.60;10.30;;;;;;;4.81;47.33;69040.97;5319434;33;34192;-83
2024/01/11 13:14:33;;;;;;;17.85;9.23;;;;;;;4.85;46.76;69103.81;5320331;33;33938;-83
2024/01/11 13:17:36;;;;;;;19.02;9.52;;;;;;;4.62;46.58;69077.75;5304930;33;34396;-82
2024/01/11 13:20:39;;;;;;;17.95;8.70;;;;;;;4.39;45.49;68994.13;5314704;33;34044;-83
2024/01/11 13:23:43;;;;;;;17.25;8.38;;;;;;;4.12;44.99;68965.56;5325205;33;34182;-82
2024/01/11 13:26:46;;;;;;;16.55;8.00;;;;;;;3.39;46.53;68881.47;5303449;33;31564;-83
2024/01/11 13:29:49;;;;;;;14.82;7.75;;;;;;;2.94;48.22;68830.66;5343716;33;33911;-83
2024/01/11 13:32:52;;;;;;;25.88;8.02;;;;;;;2.80;49.06;68816.56;5327044;33;34757;-84
2024/01/11 13:35:56;;;;;;;25.83;8.85;;;;;;;2.46;49.77;68778.47;5335916;33;34151;-82
2024/01/11 13:39:00;;;;;;;17.52;8.18;;;;;;;2.43;50.60;68778.22;5319290;33;34053;-84
2024/01/11 13:42:09;;;;;;;15.90;7.72;;;;;;;2.31;51.52;68761.16;5322069;33;33951;-83
2024/01/11 13:45:12;;;;;;;17.60;8.52;;;;;;;2.46;50.86;68773.78;5325059;33;33674;-83
2024/01/11 13:48:16;;;;;;;18.23;8.60;;;;;;;2.44;51.36;68776.75;5317116;33;34003;-83
2024/01/11 13:51:19;;;;;;;14.00;8.55;;;;;;;2.21;51.07;68752.84;5322557;33;34123;-82
2024/01/11 13:54:24;;;;;;;18.55;8.25;;;;;;;2.01;51.73;68725.06;5317775;33;33983;-84
2024/01/11 13:57:28;;;;;;;19.15;8.48;;;;;;;1.94;52.81;68725.47;5329614;33;33997;-83
2024/01/11 14:00:31;;;;;;;20.23;8.75;;;;;;;1.85;52.80;68706.63;5322400;33;34350;-82
2024/01/11 14:03:35;;;;;;;19.55;7.90;;;;;;;1.85;52.21;68709.25;5333488;33;34056;-83
2024/01/11 14:06:37;;;;;;;20.02;7.80;;;;;;;1.77;52.75;68697.97;5324252;33;34061;-82
2024/01/11 14:09:40;;;;;;;22.73;9.05;;;;;;;1.78;52.39;68696.47;5331685;33;34426;-83
2024/01/11 14:12:43;;;;;;;16.12;7.30;;;;;;;1.85;52.17;68709.25;5333416;33;34793;-83
2024/01/11 14:15:48;;;;;;;12.45;7.05;;;;;;;1.70;50.31;68690.47;5329087;33;33273;-83
2024/01/11 14:18:51;;;;;;;11.50;6.07;;;;;;;1.56;50.30;68674.91;5312259;33;34503;-83
2024/01/11 14:21:54;;;;;;;13.43;7.05;;;;;;;1.64;49.23;68680.94;5325143;33;34050;-83
2024/01/11 14:24:57;;;;;;;9.45;6.05;;;;;;;1.61;49.13;68680.09;5313723;33;33969;-83
2024/01/11 14:28:01;;;;;;;12.95;5.62;;;;;;;1.52;48.17;68672.94;5312992;33;34130;-83
2024/01/11 14:31:04;;;;;;;13.95;6.32;;;;;;;1.57;49.11;68678.13;5313555;33;34038;-83
2024/01/11 14:34:07;;;;;;;13.88;6.80;;;;;;;1.57;48.20;68678.69;5326416;33;34404;-84
2024/01/11 14:37:12;;;;;;;12.55;6.18;;;;;;;1.49;48.66;68668.88;5314836;33;34167;-82
2024/01/11 14:40:15;;;;;;;12.48;5.80;;;;;;;1.55;49.48;68676.41;5330004;33;34169;-83
2024/01/11 14:43:18;;;;;;;22.30;6.80;;;;;;;1.38;50.49;68656.78;5327114;33;35171;-83
2024/01/11 14:46:21;;;;;;;14.85;7.15;;;;;;;1.33;52.16;68646.34;5329349;33;34086;-83
2024/01/11 14:49:25;;;;;;;15.60;7.15;;;;;;;1.16;53.82;68631.44;5330577;33;34789;-86
2024/01/11 14:52:30;;;;;;;17.15;7.55;;;;;;;1.12;55.66;68627.41;5298402;33;34303;-87
2024/01/11 14:55:35;;;;;;;18.50;7.55;;;;;;;0.88;58.25;68595.63;5323711;33;35275;-87
2024/01/11 14:58:39;;;;;;;18.67;8.82;;;;;;;0.74;60.60;68582.13;5324524;33;34760;-83
2024/01/11 15:01:41;;;;;;;17.45;7.78;;;;;;;0.72;63.44;68579.81;5322955;33;34726;-83
2024/01/11 15:04:47;;;;;;;17.55;8.40;;;;;;;0.55;64.12;68558.19;5306521;33;35169;-83
2024/01/11 15:07:50;;;;;;;18.62;8.82;;;;;;;0.51;65.04;68611.41;5300459;33;35378;-83
2024/01/11 15:10:53;;;;;;;20.95;9.77;;;;;;;0.52;66.53;68557.34;5306569;33;35123;-83
2024/01/11 15:13:56;;;;;;;19.90;9.63;;;;;;;0.45;67.12;68547.25;5317286;33;34207;-83
2024/01/11 15:16:59;;;;;;;17.15;8.20;;;;;;;0.42;69.08;68549.03;5340679;33;34825;-83
2024/01/11 15:20:04;;;;;;;18.52;8.40;;;;;;;0.52;68.06;68557.34;5336690;33;33723;-83
2024/01/11 15:23:07;;;;;;;20.33;9.13;;;;;;;0.53;67.71;68563.78;5322572;33;35165;-83
2024/01/11 15:26:12;;;;;;;22.27;10.70;;;;;;;0.45;69.65;68555.13;5340126;33;34111;-83
2024/01/11 15:31:51;;;;;;;26.90;13.60;;;;;;;0.61;72.78;68570.34;5581651;31;192130;-82
2024/01/11 15:34:54;;;;;;;19.45;9.77;;;;;;;0.61;72.78;68570.34;5563488;32;33376;-82
2024/01/11 15:37:57;;;;;;;19.55;8.63;;;;;;;0.25;70.66;68526.25;5578579;31;34006;-82
2024/01/11 15:41:00;;;;;;;15.65;6.70;;;;;;;0.32;68.30;68536.94;5578126;31;34330;-84
2024/01/11 15:44:03;;;;;;;14.43;6.82;;;;;;;0.31;59.65;68533.75;5575103;31;33558;-82
2024/01/11 15:47:10;;;;;;;11.18;5.40;;;;;;;0.43;59.23;68549.63;5581271;32;33672;-82
2024/01/11 15:50:13;;;;;;;12.85;5.53;;;;;;;0.55;55.53;68566.06;5575238;32;33519;-82
2024/01/11 15:53:17;;;;;;;11.70;5.25;;;;;;;0.57;53.35;68565.75;5570942;32;33576;-81
2024/01/11 15:56:20;;;;;;;12.75;5.90;;;;;;;0.51;53.43;68561.47;5580701;31;33633;-82
2024/01/11 15:59:24;;;;;;;16.37;7.18;;;;;;;0.54;54.02;68559.66;5564332;32;33170;-82
2024/01/11 16:02:29;;;;;;;13.55;7.20;;;;;;;0.49;55.45;68553.31;5560660;32;33609;-82
2024/01/11 16:05:32;;;;;;;16.62;6.82;;;;;;;0.41;56.33;68544.69;5583222;32;34293;-82
2024/01/11 16:08:36;;;;;;;13.90;7.32;;;;;;;0.25;59.18;68526.25;5582175;32;34722;-82
2024/01/11 16:11:39;;;;;;;16.17;7.62;;;;;;;0.10;62.41;68512.19;5580954;31;34344;-83
2024/01/11 16:14:45;;;;;;;18.00;8.90;;;;;;;0.03;63.58;68501.50;5581695;31;34379;-82
2024/01/11 16:17:51;;;;;;;26.42;9.45;;;;;;;-0.09;66.01;68486.22;5581826;32;34356;-82
2024/01/11 16:20:54;;;;;;;18.73;8.57;;;;;;;-0.17;68.20;68476.44;5567745;32;34670;-82
2024/01/11 16:23:58;;;;;;;19.08;8.95;;;;;;;-0.24;69.69;68472.13;5579912;32;33686;-82
2024/01/11 16:27:06;;;;;;;22.00;9.35;;;;;;;-0.31;72.20;68460.91;5574821;32;33793;-82
2024/01/11 16:30:11;;;;;;;20.33;10.43;;;;;;;-0.34;75.36;68460.06;5568903;32;33701;-82
2024/01/11 16:33:14;;;;;;;20.00;9.75;;;;;;;-0.39;78.41;68454.31;5587228;31;33673;-82
2024/01/11 16:36:17;;;;;;;21.55;10.40;;;;;;;-0.47;81.68;68448.28;5565698;32;33945;-82
2024/01/11 16:39:21;;;;;;;23.02;10.75;;;;;;;-0.48;86.02;68441.91;5582680;31;33319;-82
2024/01/11 16:42:25;;;;;;;24.15;10.55;;;;;;;-0.58;91.22;68488.13;5571671;32;33580;-82
2024/01/11 16:45:28;;;;;;;23.83;11.57;;;;;;;-0.63;94.49;68427.28;5554950;32;33593;-82
2024/01/11 16:48:32;;;;;;;27.00;12.45;;;;;;;-0.71;97.48;68421.25;5568502;32;33729;-82
2024/01/11 16:51:45;;;;;;;28.42;12.02;;;;;;;-0.76;100.00;68420.75;5567312;32;33838;-82
